sensor_id;sensor_type;location;lat;lon;timestamp;pressure;altitude;pressure_sealevel;temperature;humidity
30073;BME280;16897;52.422;13.678;2023-11-21T00:02:26;100438.03;;;12.18;63.17
30073;BME280;16897;52.422;13.678;2023-11-21T00:06:28;100467.16;;;12.26;63.13
30073;BME280;16897;52.422;13.678;2023-11-21T00:10:31;100481.81;;;12.29;62.97
30073;BME280;16897;52.422;13.678;2023-11-21T00:14:33;100484.00;;;12.22;62.91
30073;BME280;16897;52.422;13.678;2023-11-21T00:18:35;100451.25;;;11.89;62.88
30073;BME280;16897;52.422;13.678;2023-11-21T00:22:37;100463.09;;;11.95;63.08
30073;BME280;16897;52.422;13.678;2023-11-21T00:26:39;100483.75;;;12.00;62.99
30073;BME280;16897;52.422;13.678;2023-11-21T00:30:42;100486.72;;;11.93;63.13
30073;BME280;16897;52.422;13.678;2023-11-21T00:34:44;100489.34;;;11.93;63.00
30073;BME280;16897;52.422;13.678;2023-11-21T00:38:45;100496.38;;;11.93;63.07
30073;BME280;16897;52.422;13.678;2023-11-21T00:42:47;100495.94;;;11.86;62.97
30073;BME280;16897;52.422;13.678;2023-11-21T00:46:49;100499.84;;;11.79;62.89
30073;BME280;16897;52.422;13.678;2023-11-21T00:50:51;100520.38;;;11.85;63.15
30073;BME280;16897;52.422;13.678;2023-11-21T00:54:53;100514.78;;;11.77;62.93
30073;BME280;16897;52.422;13.678;2023-11-21T00:58:55;100489.25;;;11.54;62.83
30073;BME280;16897;52.422;13.678;2023-11-21T01:02:56;100515.47;;;11.66;62.83
30073;BME280;16897;52.422;13.678;2023-11-21T01:06:58;100533.69;;;11.68;62.86
30073;BME280;16897;52.422;13.678;2023-11-21T01:11:00;100528.19;;;11.58;62.95
30073;BME280;16897;52.422;13.678;2023-11-21T01:15:04;100536.78;;;11.60;62.85
30073;BME280;16897;52.422;13.678;2023-11-21T01:19:08;100543.34;;;11.53;63.00
30073;BME280;16897;52.422;13.678;2023-11-21T01:23:10;100502.00;;;11.17;62.73
30073;BME280;16897;52.422;13.678;2023-11-21T01:27:12;100536.16;;;11.28;62.84
30073;BME280;16897;52.422;13.678;2023-11-21T01:31:14;100513.22;;;11.04;62.94
30073;BME280;16897;52.422;13.678;2023-11-21T01:35:16;100560.06;;;11.22;62.89
30073;BME280;16897;52.422;13.678;2023-11-21T01:39:17;100550.34;;;11.10;62.98
30073;BME280;16897;52.422;13.678;2023-11-21T01:43:25;100561.81;;;11.07;63.06
30073;BME280;16897;52.422;13.678;2023-11-21T01:47:26;100553.69;;;10.97;63.04
30073;BME280;16897;52.422;13.678;2023-11-21T01:51:28;100566.94;;;10.94;63.15
30073;BME280;16897;52.422;13.678;2023-11-21T01:55:30;100578.88;;;10.98;63.07
30073;BME280;16897;52.422;13.678;2023-11-21T01:59:38;100560.50;;;10.85;62.95
30073;BME280;16897;52.422;13.678;2023-11-21T02:03:39;100561.69;;;10.80;63.00
30073;BME280;16897;52.422;13.678;2023-11-21T02:07:43;100574.09;;;10.76;62.84
30073;BME280;16897;52.422;13.678;2023-11-21T02:11:44;100587.97;;;10.77;62.92
30073;BME280;16897;52.422;13.678;2023-11-21T02:15:46;100568.91;;;10.60;62.90
30073;BME280;16897;52.422;13.678;2023-11-21T02:19:50;100565.91;;;10.52;62.93
30073;BME280;16897;52.422;13.678;2023-11-21T02:23:52;100605.69;;;10.72;62.84
30073;BME280;16897;52.422;13.678;2023-11-21T02:27:54;100604.94;;;10.70;63.04
30073;BME280;16897;52.422;13.678;2023-11-21T02:31:56;100602.84;;;10.60;63.03
30073;BME280;16897;52.422;13.678;2023-11-21T02:35:57;100602.28;;;10.55;63.07
30073;BME280;16897;52.422;13.678;2023-11-21T02:40:01;100600.38;;;10.43;62.88
30073;BME280;16897;52.422;13.678;2023-11-21T02:44:06;100618.47;;;10.46;63.07
30073;BME280;16897;52.422;13.678;2023-11-21T02:48:08;100606.09;;;10.34;62.88
30073;BME280;16897;52.422;13.678;2023-11-21T02:52:10;100586.06;;;10.18;62.92
30073;BME280;16897;52.422;13.678;2023-11-21T02:56:12;100607.78;;;10.19;62.92
30073;BME280;16897;52.422;13.678;2023-11-21T03:00:15;100624.53;;;10.31;63.02
30073;BME280;16897;52.422;13.678;2023-11-21T03:04:16;100631.75;;;10.26;62.89
30073;BME280;16897;52.422;13.678;2023-11-21T03:08:19;100626.22;;;10.16;62.79
30073;BME280;16897;52.422;13.678;2023-11-21T03:12:21;100600.53;;;9.92;62.91
30073;BME280;16897;52.422;13.678;2023-11-21T03:16:23;100638.06;;;10.06;63.07
30073;BME280;16897;52.422;13.678;2023-11-21T03:20:24;100624.94;;;9.91;63.01
30073;BME280;16897;52.422;13.678;2023-11-21T03:24:27;100625.19;;;9.87;62.90
30073;BME280;16897;52.422;13.678;2023-11-21T03:28:28;100637.28;;;9.88;63.05
30073;BME280;16897;52.422;13.678;2023-11-21T03:32:29;100653.72;;;9.90;62.89
30073;BME280;16897;52.422;13.678;2023-11-21T03:36:33;100670.53;;;9.84;62.90
30073;BME280;16897;52.422;13.678;2023-11-21T03:40:35;100657.44;;;9.68;62.92
30073;BME280;16897;52.422;13.678;2023-11-21T03:44:37;100677.91;;;9.76;62.94
30073;BME280;16897;52.422;13.678;2023-11-21T03:48:39;100644.31;;;9.54;62.89
30073;BME280;16897;52.422;13.678;2023-11-21T03:52:40;100647.91;;;9.51;63.05
30073;BME280;16897;52.422;13.678;2023-11-21T03:56:42;100693.78;;;9.71;62.89
30073;BME280;16897;52.422;13.678;2023-11-21T04:00:43;100693.34;;;9.63;62.90
30073;BME280;16897;52.422;13.678;2023-11-21T04:04:45;100694.34;;;9.61;62.91
30073;BME280;16897;52.422;13.678;2023-11-21T04:08:47;100695.34;;;9.58;63.08
30073;BME280;16897;52.422;13.678;2023-11-21T04:12:48;100700.28;;;9.64;62.82
30073;BME280;16897;52.422;13.678;2023-11-21T04:16:50;100708.81;;;9.66;62.84
30073;BME280;16897;52.422;13.678;2023-11-21T04:20:52;100719.25;;;9.66;62.95
30073;BME280;16897;52.422;13.678;2023-11-21T04:24:53;100712.53;;;9.62;62.85
30073;BME280;16897;52.422;13.678;2023-11-21T04:28:56;100714.38;;;9.60;62.87
30073;BME280;16897;52.422;13.678;2023-11-21T04:32:58;100724.91;;;9.59;62.80
30073;BME280;16897;52.422;13.678;2023-11-21T04:37:00;100723.13;;;9.59;62.96
30073;BME280;16897;52.422;13.678;2023-11-21T04:41:01;100720.34;;;9.45;62.85
30073;BME280;16897;52.422;13.678;2023-11-21T04:45:06;100732.16;;;9.52;62.89
30073;BME280;16897;52.422;13.678;2023-11-21T04:49:12;100746.03;;;9.52;62.90
30073;BME280;16897;52.422;13.678;2023-11-21T04:53:13;100742.91;;;9.46;62.99
30073;BME280;16897;52.422;13.678;2023-11-21T04:57:16;100719.44;;;9.28;62.88
30073;BME280;16897;52.422;13.678;2023-11-21T05:01:19;100744.06;;;9.40;63.01
30073;BME280;16897;52.422;13.678;2023-11-21T05:05:21;100711.84;;;9.06;62.86
30073;BME280;16897;52.422;13.678;2023-11-21T05:09:22;100717.31;;;9.02;63.01
30073;BME280;16897;52.422;13.678;2023-11-21T05:13:24;100768.03;;;9.29;62.92
30073;BME280;16897;52.422;13.678;2023-11-21T05:17:28;100752.94;;;9.19;63.01
30073;BME280;16897;52.422;13.678;2023-11-21T05:21:30;100769.34;;;9.21;62.80
30073;BME280;16897;52.422;13.678;2023-11-21T05:25:34;100782.13;;;9.25;62.87
30073;BME280;16897;52.422;13.678;2023-11-21T05:29:35;100790.03;;;9.24;62.97
30073;BME280;16897;52.422;13.678;2023-11-21T05:33:38;100783.59;;;9.14;62.99
30073;BME280;16897;52.422;13.678;2023-11-21T05:37:39;100799.00;;;9.18;62.93
30073;BME280;16897;52.422;13.678;2023-11-21T05:41:41;100782.47;;;9.00;62.76
30073;BME280;16897;52.422;13.678;2023-11-21T05:45:42;100806.34;;;9.10;62.82
30073;BME280;16897;52.422;13.678;2023-11-21T05:49:44;100813.69;;;9.02;62.89
30073;BME280;16897;52.422;13.678;2023-11-21T05:53:47;100806.13;;;8.96;62.76
30073;BME280;16897;52.422;13.678;2023-11-21T05:57:48;100806.28;;;8.93;62.78
30073;BME280;16897;52.422;13.678;2023-11-21T06:01:50;100792.84;;;8.83;62.82
30073;BME280;16897;52.422;13.678;2023-11-21T06:05:51;100832.97;;;8.98;62.90
30073;BME280;16897;52.422;13.678;2023-11-21T06:09:52;100838.31;;;8.95;62.92
30073;BME280;16897;52.422;13.678;2023-11-21T06:13:54;100800.53;;;8.67;62.83
30073;BME280;16897;52.422;13.678;2023-11-21T06:17:55;100829.53;;;8.78;62.82
30073;BME280;16897;52.422;13.678;2023-11-21T06:21:56;100862.03;;;8.89;63.07
30073;BME280;16897;52.422;13.678;2023-11-21T06:25:58;100851.13;;;8.80;63.07
30073;BME280;16897;52.422;13.678;2023-11-21T06:30:00;100863.09;;;8.84;62.98
30073;BME280;16897;52.422;13.678;2023-11-21T06:34:01;100831.97;;;8.62;62.90
30073;BME280;16897;52.422;13.678;2023-11-21T06:38:04;100847.78;;;8.58;62.94
30073;BME280;16897;52.422;13.678;2023-11-21T06:42:06;100875.09;;;8.68;62.87
30073;BME280;16897;52.422;13.678;2023-11-21T06:46:08;100898.91;;;8.79;62.95
30073;BME280;16897;52.422;13.678;2023-11-21T06:50:13;100911.28;;;8.74;62.85
30073;BME280;16897;52.422;13.678;2023-11-21T06:54:14;100879.94;;;8.57;62.94
30073;BME280;16897;52.422;13.678;2023-11-21T06:58:16;100887.13;;;8.52;62.91
30073;BME280;16897;52.422;13.678;2023-11-21T07:02:17;100879.16;;;8.34;62.82
30073;BME280;16897;52.422;13.678;2023-11-21T07:06:19;100900.59;;;8.41;63.02
30073;BME280;16897;52.422;13.678;2023-11-21T07:10:20;100889.03;;;8.26;62.97
30073;BME280;16897;52.422;13.678;2023-11-21T07:14:22;100875.59;;;8.16;63.01
30073;BME280;16897;52.422;13.678;2023-11-21T07:18:24;100922.63;;;8.32;63.15
30073;BME280;16897;52.422;13.678;2023-11-21T07:22:25;100939.88;;;8.35;63.17
30073;BME280;16897;52.422;13.678;2023-11-21T07:26:27;100902.91;;;8.06;63.05
30073;BME280;16897;52.422;13.678;2023-11-21T07:30:29;100929.06;;;8.24;62.90
30073;BME280;16897;52.422;13.678;2023-11-21T07:34:30;100928.28;;;8.22;62.94
30073;BME280;16897;52.422;13.678;2023-11-21T07:38:32;100940.88;;;8.31;63.13
30073;BME280;16897;52.422;13.678;2023-11-21T07:42:34;100946.75;;;8.36;62.93
30073;BME280;16897;52.422;13.678;2023-11-21T07:46:36;100914.88;;;8.10;62.92
30073;BME280;16897;52.422;13.678;2023-11-21T07:50:37;100949.66;;;8.28;62.93
30073;BME280;16897;52.422;13.678;2023-11-21T07:54:39;100958.41;;;8.27;63.03
30073;BME280;16897;52.422;13.678;2023-11-21T07:58:40;100948.34;;;8.18;63.03
30073;BME280;16897;52.422;13.678;2023-11-21T08:02:42;100968.81;;;8.27;62.86
30073;BME280;16897;52.422;13.678;2023-11-21T08:06:44;100966.50;;;8.19;62.95
30073;BME280;16897;52.422;13.678;2023-11-21T08:10:46;100965.28;;;8.08;62.90
30073;BME280;16897;52.422;13.678;2023-11-21T08:14:57;100968.63;;;8.10;63.02
30073;BME280;16897;52.422;13.678;2023-11-21T08:18:59;100972.94;;;8.11;63.06
30073;BME280;16897;52.422;13.678;2023-11-21T08:23:01;100990.06;;;8.16;63.12
30073;BME280;16897;52.422;13.678;2023-11-21T08:27:04;100994.66;;;8.10;62.92
30073;BME280;16897;52.422;13.678;2023-11-21T08:31:08;100984.94;;;7.93;63.10
30073;BME280;16897;52.422;13.678;2023-11-21T08:35:10;101012.84;;;8.10;62.97
30073;BME280;16897;52.422;13.678;2023-11-21T08:39:13;100993.28;;;8.01;63.14
30073;BME280;16897;52.422;13.678;2023-11-21T08:43:14;100948.81;;;7.65;63.01
30073;BME280;16897;52.422;13.678;2023-11-21T08:47:17;101009.03;;;7.96;63.03
30073;BME280;16897;52.422;13.678;2023-11-21T08:51:19;100988.09;;;7.79;63.04
30073;BME280;16897;52.422;13.678;2023-11-21T08:55:21;101016.97;;;7.93;63.10
30073;BME280;16897;52.422;13.678;2023-11-21T08:59:24;101021.72;;;7.84;63.08
30073;BME280;16897;52.422;13.678;2023-11-21T09:03:26;101039.53;;;7.93;62.97
30073;BME280;16897;52.422;13.678;2023-11-21T09:07:27;101039.63;;;7.91;63.07
30073;BME280;16897;52.422;13.678;2023-11-21T09:11:29;101007.63;;;7.67;63.17
30073;BME280;16897;52.422;13.678;2023-11-21T09:15:34;101038.31;;;7.80;63.11
30073;BME280;16897;52.422;13.678;2023-11-21T09:19:45;101058.69;;;7.90;63.24
30073;BME280;16897;52.422;13.678;2023-11-21T09:23:51;101064.75;;;7.91;63.05
30073;BME280;16897;52.422;13.678;2023-11-21T09:27:53;101072.44;;;7.94;63.00
30073;BME280;16897;52.422;13.678;2023-11-21T09:31:55;101061.59;;;7.83;63.23
30073;BME280;16897;52.422;13.678;2023-11-21T09:35:58;101078.78;;;7.87;63.06
30073;BME280;16897;52.422;13.678;2023-11-21T09:39:59;101081.97;;;7.93;63.09
30073;BME280;16897;52.422;13.678;2023-11-21T09:44:00;101088.78;;;7.97;63.18
30073;BME280;16897;52.422;13.678;2023-11-21T09:48:03;101077.88;;;7.88;63.11
30073;BME280;16897;52.422;13.678;2023-11-21T09:52:07;101091.50;;;7.94;63.15
30073;BME280;16897;52.422;13.678;2023-11-21T09:56:10;101098.38;;;7.95;63.04
30073;BME280;16897;52.422;13.678;2023-11-21T10:00:12;101098.63;;;7.89;63.22
30073;BME280;16897;52.422;13.678;2023-11-21T10:04:13;101090.38;;;7.78;62.88
30073;BME280;16897;52.422;13.678;2023-11-21T10:08:15;101037.16;;;7.41;63.08
30073;BME280;16897;52.422;13.678;2023-11-21T10:12:17;101100.94;;;7.73;63.04
30073;BME280;16897;52.422;13.678;2023-11-21T10:16:19;101107.72;;;7.78;63.18
30073;BME280;16897;52.422;13.678;2023-11-21T10:20:24;101105.47;;;7.68;63.09
30073;BME280;16897;52.422;13.678;2023-11-21T10:24:25;101109.72;;;7.71;63.01
30073;BME280;16897;52.422;13.678;2023-11-21T10:28:27;101082.72;;;7.51;63.23
30073;BME280;16897;52.422;13.678;2023-11-21T10:32:28;101115.75;;;7.71;63.13
30073;BME280;16897;52.422;13.678;2023-11-21T10:36:33;101123.63;;;7.70;63.23
30073;BME280;16897;52.422;13.678;2023-11-21T10:40:37;101134.84;;;7.70;63.10
30073;BME280;16897;52.422;13.678;2023-11-21T10:44:41;101126.41;;;7.64;62.96
30073;BME280;16897;52.422;13.678;2023-11-21T10:48:45;101126.53;;;7.61;63.24
30073;BME280;16897;52.422;13.678;2023-11-21T10:52:47;101133.53;;;7.59;63.05
30073;BME280;16897;52.422;13.678;2023-11-21T10:56:50;101137.16;;;7.54;63.12
30073;BME280;16897;52.422;13.678;2023-11-21T11:00:52;101132.13;;;7.50;63.07
30073;BME280;16897;52.422;13.678;2023-11-21T11:04:54;101137.19;;;7.53;63.17
30073;BME280;16897;52.422;13.678;2023-11-21T11:08:59;101097.47;;;7.26;63.16
30073;BME280;16897;52.422;13.678;2023-11-21T11:13:03;101142.47;;;7.51;63.16
30073;BME280;16897;52.422;13.678;2023-11-21T11:17:05;101141.56;;;7.52;63.06
30073;BME280;16897;52.422;13.678;2023-11-21T11:21:15;101156.03;;;7.60;63.12
30073;BME280;16897;52.422;13.678;2023-11-21T11:25:34;101171.63;;;7.60;63.13
30073;BME280;16897;52.422;13.678;2023-11-21T11:34:28;101161.78;;;7.44;63.01
30073;BME280;16897;52.422;13.678;2023-11-21T11:38:34;101170.59;;;7.40;63.00
30073;BME280;16897;52.422;13.678;2023-11-21T11:42:36;101191.88;;;7.50;63.11
30073;BME280;16897;52.422;13.678;2023-11-21T11:46:42;101198.09;;;7.46;63.17
30073;BME280;16897;52.422;13.678;2023-11-21T11:51:25;101204.84;;;7.51;63.13
30073;BME280;16897;52.422;13.678;2023-11-21T11:55:27;101203.31;;;7.46;63.14
30073;BME280;16897;52.422;13.678;2023-11-21T12:00:06;101213.03;;;7.39;62.83
30073;BME280;16897;52.422;13.678;2023-11-21T12:08:15;101228.22;;;7.26;63.02
30073;BME280;16897;52.422;13.678;2023-11-21T12:12:17;101197.91;;;7.00;63.06
30073;BME280;16897;52.422;13.678;2023-11-21T12:16:20;101247.44;;;7.21;63.14
30073;BME280;16897;52.422;13.678;2023-11-21T12:20:23;101242.44;;;7.15;63.13
30073;BME280;16897;52.422;13.678;2023-11-21T12:24:25;101251.84;;;7.19;63.06
30073;BME280;16897;52.422;13.678;2023-11-21T12:28:27;101263.31;;;7.12;63.39
30073;BME280;16897;52.422;13.678;2023-11-21T12:32:28;101267.59;;;7.13;63.31
30073;BME280;16897;52.422;13.678;2023-11-21T12:36:29;101278.00;;;7.13;63.23
30073;BME280;16897;52.422;13.678;2023-11-21T12:40:31;101274.50;;;7.14;63.27
30073;BME280;16897;52.422;13.678;2023-11-21T12:44:32;101235.53;;;6.87;63.33
30073;BME280;16897;52.422;13.678;2023-11-21T12:48:34;101266.13;;;7.05;63.24
30073;BME280;16897;52.422;13.678;2023-11-21T12:52:38;101259.31;;;7.01;63.31
30073;BME280;16897;52.422;13.678;2023-11-21T12:56:40;101253.41;;;6.96;63.26
30073;BME280;16897;52.422;13.678;2023-11-21T13:00:46;101251.63;;;6.98;63.25
30073;BME280;16897;52.422;13.678;2023-11-21T13:04:52;101281.38;;;7.16;63.42
30073;BME280;16897;52.422;13.678;2023-11-21T13:08:54;101282.25;;;7.15;63.03
30073;BME280;16897;52.422;13.678;2023-11-21T13:12:58;101279.91;;;7.07;63.18
30073;BME280;16897;52.422;13.678;2023-11-21T13:17:01;101266.34;;;6.98;63.06
30073;BME280;16897;52.422;13.678;2023-11-21T13:21:04;101297.31;;;7.04;63.26
30073;BME280;16897;52.422;13.678;2023-11-21T13:25:16;101291.41;;;6.99;63.03
30073;BME280;16897;52.422;13.678;2023-11-21T13:29:20;101277.41;;;6.76;63.28
30073;BME280;16897;52.422;13.678;2023-11-21T13:33:22;101320.03;;;6.97;63.27
30073;BME280;16897;52.422;13.678;2023-11-21T13:37:28;101323.69;;;6.92;63.29
30073;BME280;16897;52.422;13.678;2023-11-21T13:41:33;101297.25;;;6.77;63.12
30073;BME280;16897;52.422;13.678;2023-11-21T13:45:41;101344.19;;;6.99;63.27
30073;BME280;16897;52.422;13.678;2023-11-21T13:49:43;101335.78;;;6.91;63.29
30073;BME280;16897;52.422;13.678;2023-11-21T13:53:45;101333.44;;;6.83;63.09
30073;BME280;16897;52.422;13.678;2023-11-21T13:57:51;101354.81;;;6.92;63.26
30073;BME280;16897;52.422;13.678;2023-11-21T14:01:54;101349.56;;;6.93;63.18
30073;BME280;16897;52.422;13.678;2023-11-21T14:05:57;101360.03;;;6.92;63.26
30073;BME280;16897;52.422;13.678;2023-11-21T14:09:59;101369.78;;;6.83;63.20
30073;BME280;16897;52.422;13.678;2023-11-21T14:14:01;101370.03;;;6.74;63.12
30073;BME280;16897;52.422;13.678;2023-11-21T14:18:03;101394.03;;;6.82;63.22
30073;BME280;16897;52.422;13.678;2023-11-21T14:22:11;101401.09;;;6.77;63.18
30073;BME280;16897;52.422;13.678;2023-11-21T14:26:14;101422.72;;;6.78;63.36
30073;BME280;16897;52.422;13.678;2023-11-21T14:30:16;101404.84;;;6.67;63.26
30073;BME280;16897;52.422;13.678;2023-11-21T14:34:20;101413.34;;;6.72;63.10
30073;BME280;16897;52.422;13.678;2023-11-21T14:38:22;101415.28;;;6.65;63.17
30073;BME280;16897;52.422;13.678;2023-11-21T14:42:24;101424.91;;;6.60;62.94
30073;BME280;16897;52.422;13.678;2023-11-21T14:46:28;101437.06;;;6.58;63.24
30073;BME280;16897;52.422;13.678;2023-11-21T14:50:29;101440.66;;;6.54;63.10
30073;BME280;16897;52.422;13.678;2023-11-21T14:54:42;101434.09;;;6.41;63.26
30073;BME280;16897;52.422;13.678;2023-11-21T14:58:47;101454.78;;;6.44;63.38
30073;BME280;16897;52.422;13.678;2023-11-21T15:02:48;101456.69;;;6.37;63.18
30073;BME280;16897;52.422;13.678;2023-11-21T15:06:50;101465.44;;;6.32;63.31
30073;BME280;16897;52.422;13.678;2023-11-21T15:10:54;101473.28;;;6.30;63.27
30073;BME280;16897;52.422;13.678;2023-11-21T15:14:56;101460.75;;;6.13;63.26
30073;BME280;16897;52.422;13.678;2023-11-21T15:18:58;101454.84;;;6.07;63.41
30073;BME280;16897;52.422;13.678;2023-11-21T15:22:59;101476.38;;;6.10;63.13
30073;BME280;16897;52.422;13.678;2023-11-21T15:27:01;101502.00;;;6.23;63.18
30073;BME280;16897;52.422;13.678;2023-11-21T15:31:05;101507.97;;;6.26;63.12
30073;BME280;16897;52.422;13.678;2023-11-21T15:35:06;101517.53;;;6.24;63.24
30073;BME280;16897;52.422;13.678;2023-11-21T15:39:14;101516.81;;;6.17;63.06
30073;BME280;16897;52.422;13.678;2023-11-21T15:43:15;101528.16;;;6.13;63.09
30073;BME280;16897;52.422;13.678;2023-11-21T15:47:16;101530.78;;;6.12;63.02
30073;BME280;16897;52.422;13.678;2023-11-21T15:51:17;101538.75;;;6.04;63.02
30073;BME280;16897;52.422;13.678;2023-11-21T15:55:19;101481.75;;;5.64;63.02
30073;BME280;16897;52.422;13.678;2023-11-21T15:59:21;101545.19;;;5.85;62.95
30073;BME280;16897;52.422;13.678;2023-11-21T16:03:25;101561.66;;;5.84;63.26
30073;BME280;16897;52.422;13.678;2023-11-21T16:07:26;101532.72;;;5.63;63.15
30073;BME280;16897;52.422;13.678;2023-11-21T16:11:31;101510.75;;;5.41;63.10
30073;BME280;16897;52.422;13.678;2023-11-21T16:15:34;101551.81;;;5.59;63.14
30073;BME280;16897;52.422;13.678;2023-11-21T16:19:37;101587.97;;;5.65;62.88
30073;BME280;16897;52.422;13.678;2023-11-21T16:23:38;101581.19;;;5.58;63.09
30073;BME280;16897;52.422;13.678;2023-11-21T16:27:40;101600.09;;;5.63;63.18
30073;BME280;16897;52.422;13.678;2023-11-21T16:31:42;101593.38;;;5.53;63.14
30073;BME280;16897;52.422;13.678;2023-11-21T16:35:43;101597.06;;;5.43;63.08
30073;BME280;16897;52.422;13.678;2023-11-21T16:39:45;101620.97;;;5.55;63.21
30073;BME280;16897;52.422;13.678;2023-11-21T16:43:48;101590.28;;;5.36;63.17
30073;BME280;16897;52.422;13.678;2023-11-21T16:47:50;101621.09;;;5.48;63.19
30073;BME280;16897;52.422;13.678;2023-11-21T16:51:51;101632.28;;;5.50;63.12
30073;BME280;16897;52.422;13.678;2023-11-21T16:55:52;101645.31;;;5.45;63.02
30073;BME280;16897;52.422;13.678;2023-11-21T16:59:54;101640.34;;;5.35;63.13
30073;BME280;16897;52.422;13.678;2023-11-21T17:03:56;101655.88;;;5.36;63.14
30073;BME280;16897;52.422;13.678;2023-11-21T17:08:00;101654.19;;;5.33;63.03
30073;BME280;16897;52.422;13.678;2023-11-21T17:12:02;101639.69;;;5.25;62.90
30073;BME280;16897;52.422;13.678;2023-11-21T17:16:06;101650.94;;;5.24;63.22
30073;BME280;16897;52.422;13.678;2023-11-21T17:20:07;101661.19;;;5.28;63.25
30073;BME280;16897;52.422;13.678;2023-11-21T17:24:12;101675.56;;;5.46;63.10
30073;BME280;16897;52.422;13.678;2023-11-21T17:28:13;101677.38;;;5.41;62.94
30073;BME280;16897;52.422;13.678;2023-11-21T17:32:15;101674.78;;;5.40;62.98
30073;BME280;16897;52.422;13.678;2023-11-21T17:36:18;101683.34;;;5.45;62.93
30073;BME280;16897;52.422;13.678;2023-11-21T17:40:20;101705.84;;;5.43;62.96
30073;BME280;16897;52.422;13.678;2023-11-21T17:44:21;101699.13;;;5.32;62.94
30073;BME280;16897;52.422;13.678;2023-11-21T17:48:23;101673.41;;;5.20;62.84
30073;BME280;16897;52.422;13.678;2023-11-21T17:52:27;101664.88;;;5.15;62.89
30073;BME280;16897;52.422;13.678;2023-11-21T17:56:30;101645.31;;;5.00;62.91
30073;BME280;16897;52.422;13.678;2023-11-21T18:00:31;101723.94;;;5.44;63.09
30073;BME280;16897;52.422;13.678;2023-11-21T18:04:33;101732.50;;;5.48;63.03
30073;BME280;16897;52.422;13.678;2023-11-21T18:08:36;101747.13;;;5.50;62.92
30073;BME280;16897;52.422;13.678;2023-11-21T18:12:40;101707.97;;;5.19;62.85
30073;BME280;16897;52.422;13.678;2023-11-21T18:16:44;101718.34;;;5.18;62.96
30073;BME280;16897;52.422;13.678;2023-11-21T18:20:45;101730.44;;;5.16;63.06
30073;BME280;16897;52.422;13.678;2023-11-21T18:24:47;101775.84;;;5.38;62.93
30073;BME280;16897;52.422;13.678;2023-11-21T18:28:49;101787.06;;;5.39;62.98
30073;BME280;16897;52.422;13.678;2023-11-21T18:32:50;101752.16;;;5.07;63.05
30073;BME280;16897;52.422;13.678;2023-11-21T18:36:52;101808.72;;;5.33;62.89
30073;BME280;16897;52.422;13.678;2023-11-21T18:40:53;101798.53;;;5.24;62.99
30073;BME280;16897;52.422;13.678;2023-11-21T18:44:55;101798.53;;;5.24;62.98
30073;BME280;16897;52.422;13.678;2023-11-21T18:48:57;101817.41;;;5.29;62.82
30073;BME280;16897;52.422;13.678;2023-11-21T18:52:59;101803.72;;;5.21;63.02
30073;BME280;16897;52.422;13.678;2023-11-21T18:57:01;101764.50;;;4.91;62.92
30073;BME280;16897;52.422;13.678;2023-11-21T19:01:03;101776.56;;;4.92;63.03
30073;BME280;16897;52.422;13.678;2023-11-21T19:05:04;101787.81;;;4.90;62.89
30073;BME280;16897;52.422;13.678;2023-11-21T19:09:06;101818.56;;;5.09;62.81
30073;BME280;16897;52.422;13.678;2023-11-21T19:13:07;101853.78;;;5.23;62.87
30073;BME280;16897;52.422;13.678;2023-11-21T19:17:09;101825.66;;;4.98;62.93
30073;BME280;16897;52.422;13.678;2023-11-21T19:21:12;101871.03;;;5.24;63.03
30073;BME280;16897;52.422;13.678;2023-11-21T19:25:15;101871.94;;;5.21;62.83
30073;BME280;16897;52.422;13.678;2023-11-21T19:29:17;101803.50;;;4.77;62.96
30073;BME280;16897;52.422;13.678;2023-11-21T19:33:18;101858.44;;;4.98;62.73
30073;BME280;16897;52.422;13.678;2023-11-21T19:37:21;101861.94;;;4.94;62.72
30073;BME280;16897;52.422;13.678;2023-11-21T19:41:23;101902.16;;;5.19;62.85
30073;BME280;16897;52.422;13.678;2023-11-21T19:45:26;101904.84;;;5.13;62.95
30073;BME280;16897;52.422;13.678;2023-11-21T19:49:30;101887.78;;;5.00;62.77
30073;BME280;16897;52.422;13.678;2023-11-21T19:53:34;101920.47;;;5.05;62.71
30073;BME280;16897;52.422;13.678;2023-11-21T19:57:38;101932.50;;;5.09;62.76
30073;BME280;16897;52.422;13.678;2023-11-21T20:01:41;101919.63;;;5.03;62.80
30073;BME280;16897;52.422;13.678;2023-11-21T20:05:44;101938.50;;;5.13;62.75
30073;BME280;16897;52.422;13.678;2023-11-21T20:09:45;101927.38;;;5.05;62.69
30073;BME280;16897;52.422;13.678;2023-11-21T20:13:50;101913.72;;;4.94;62.87
30073;BME280;16897;52.422;13.678;2023-11-21T20:17:52;101936.91;;;5.01;62.77
30073;BME280;16897;52.422;13.678;2023-11-21T20:21:53;101933.47;;;5.02;62.77
30073;BME280;16897;52.422;13.678;2023-11-21T20:25:54;101924.00;;;5.00;62.82
30073;BME280;16897;52.422;13.678;2023-11-21T20:29:59;101949.72;;;5.12;62.73
30073;BME280;16897;52.422;13.678;2023-11-21T20:34:01;101938.56;;;5.07;62.89
30073;BME280;16897;52.422;13.678;2023-11-21T20:38:03;101967.75;;;5.20;62.85
30073;BME280;16897;52.422;13.678;2023-11-21T20:42:05;101947.19;;;5.09;62.87
30073;BME280;16897;52.422;13.678;2023-11-21T20:46:06;101961.81;;;5.10;62.81
30073;BME280;16897;52.422;13.678;2023-11-21T20:50:09;101958.44;;;5.05;62.82
30073;BME280;16897;52.422;13.678;2023-11-21T20:54:11;101963.59;;;5.05;62.82
30073;BME280;16897;52.422;13.678;2023-11-21T20:58:12;101987.69;;;5.13;62.68
30073;BME280;16897;52.422;13.678;2023-11-21T21:02:14;102005.78;;;5.16;62.70
30073;BME280;16897;52.422;13.678;2023-11-21T21:06:15;101991.22;;;5.04;62.57
30073;BME280;16897;52.422;13.678;2023-11-21T21:10:17;101996.41;;;5.06;62.90
30073;BME280;16897;52.422;13.678;2023-11-21T21:14:18;102011.84;;;5.12;62.49